sensor_id;sensor_type;location;lat;lon;timestamp;P1;durP1;ratioP1;P2;durP2;ratioP2
70592;SDS011;58294;42.988;20.338;2023-01-08T00:02:07;132.82;;;90.35;;
70592;SDS011;58294;42.988;20.338;2023-01-08T00:04:34;96.70;;;73.05;;
70592;SDS011;58294;42.988;20.338;2023-01-08T00:07:00;95.38;;;70.50;;
70592;SDS011;58294;42.988;20.338;2023-01-08T00:09:25;97.82;;;72.07;;
70592;SDS011;58294;42.988;20.338;2023-01-08T00:11:51;104.13;;;74.95;;
70592;SDS011;58294;42.988;20.338;2023-01-08T00:14:17;109.93;;;79.78;;
70592;SDS011;58294;42.988;20.338;2023-01-08T00:16:43;132.80;;;88.93;;
70592;SDS011;58294;42.988;20.338;2023-01-08T00:19:09;152.38;;;103.90;;
70592;SDS011;58294;42.988;20.338;2023-01-08T00:21:36;161.60;;;110.63;;
70592;SDS011;58294;42.988;20.338;2023-01-08T00:24:02;172.43;;;120.15;;
70592;SDS011;58294;42.988;20.338;2023-01-08T00:26:28;177.40;;;122.50;;
70592;SDS011;58294;42.988;20.338;2023-01-08T00:28:54;177.70;;;122.82;;
70592;SDS011;58294;42.988;20.338;2023-01-08T00:31:20;197.55;;;136.93;;
70592;SDS011;58294;42.988;20.338;2023-01-08T00:33:46;191.65;;;133.38;;
70592;SDS011;58294;42.988;20.338;2023-01-08T00:36:13;115.72;;;83.60;;
70592;SDS011;58294;42.988;20.338;2023-01-08T00:38:40;107.35;;;81.88;;
70592;SDS011;58294;42.988;20.338;2023-01-08T00:41:07;120.20;;;84.65;;
70592;SDS011;58294;42.988;20.338;2023-01-08T00:43:33;128.45;;;90.47;;
70592;SDS011;58294;42.988;20.338;2023-01-08T00:45:59;122.05;;;88.70;;
70592;SDS011;58294;42.988;20.338;2023-01-08T00:48:25;129.02;;;93.07;;
70592;SDS011;58294;42.988;20.338;2023-01-08T00:50:51;120.65;;;89.65;;
70592;SDS011;58294;42.988;20.338;2023-01-08T00:53:18;117.65;;;82.28;;
70592;SDS011;58294;42.988;20.338;2023-01-08T00:55:45;168.68;;;111.22;;
70592;SDS011;58294;42.988;20.338;2023-01-08T00:58:11;125.80;;;87.03;;
70592;SDS011;58294;42.988;20.338;2023-01-08T01:00:37;121.30;;;83.68;;
70592;SDS011;58294;42.988;20.338;2023-01-08T01:03:03;127.90;;;86.53;;
70592;SDS011;58294;42.988;20.338;2023-01-08T01:05:29;119.25;;;90.30;;
70592;SDS011;58294;42.988;20.338;2023-01-08T01:07:55;94.75;;;69.68;;
70592;SDS011;58294;42.988;20.338;2023-01-08T01:10:21;70.03;;;52.15;;
70592;SDS011;58294;42.988;20.338;2023-01-08T01:12:48;68.18;;;51.83;;
70592;SDS011;58294;42.988;20.338;2023-01-08T01:15:15;66.05;;;50.08;;
70592;SDS011;58294;42.988;20.338;2023-01-08T01:17:44;59.40;;;47.55;;
70592;SDS011;58294;42.988;20.338;2023-01-08T01:20:11;71.95;;;53.38;;
70592;SDS011;58294;42.988;20.338;2023-01-08T01:22:39;65.40;;;49.53;;
70592;SDS011;58294;42.988;20.338;2023-01-08T01:25:05;71.95;;;52.00;;
70592;SDS011;58294;42.988;20.338;2023-01-08T01:27:32;69.18;;;53.20;;
70592;SDS011;58294;42.988;20.338;2023-01-08T01:29:58;68.28;;;53.67;;
70592;SDS011;58294;42.988;20.338;2023-01-08T01:32:24;62.30;;;52.05;;
70592;SDS011;58294;42.988;20.338;2023-01-08T01:34:49;62.58;;;51.80;;
70592;SDS011;58294;42.988;20.338;2023-01-08T01:37:15;71.40;;;58.22;;
70592;SDS011;58294;42.988;20.338;2023-01-08T01:39:41;75.13;;;55.40;;
70592;SDS011;58294;42.988;20.338;2023-01-08T01:42:14;67.57;;;55.63;;
70592;SDS011;58294;42.988;20.338;2023-01-08T01:44:59;68.22;;;52.75;;
70592;SDS011;58294;42.988;20.338;2023-01-08T01:49:55;72.00;;;53.33;;
70592;SDS011;58294;42.988;20.338;2023-01-08T01:52:22;70.80;;;54.60;;
70592;SDS011;58294;42.988;20.338;2023-01-08T01:54:49;75.00;;;55.45;;
70592;SDS011;58294;42.988;20.338;2023-01-08T01:57:16;78.78;;;55.83;;
70592;SDS011;58294;42.988;20.338;2023-01-08T01:59:42;82.82;;;58.83;;
70592;SDS011;58294;42.988;20.338;2023-01-08T02:02:09;87.55;;;63.42;;
70592;SDS011;58294;42.988;20.338;2023-01-08T02:04:35;91.43;;;59.25;;
70592;SDS011;58294;42.988;20.338;2023-01-08T02:07:10;76.00;;;57.83;;
70592;SDS011;58294;42.988;20.338;2023-01-08T02:09:42;78.20;;;55.22;;
70592;SDS011;58294;42.988;20.338;2023-01-08T02:12:12;69.18;;;49.03;;
70592;SDS011;58294;42.988;20.338;2023-01-08T02:17:33;67.35;;;47.95;;
70592;SDS011;58294;42.988;20.338;2023-01-08T02:20:13;134.68;;;87.43;;
70592;SDS011;58294;42.988;20.338;2023-01-08T02:28:19;129.20;;;93.07;;
70592;SDS011;58294;42.988;20.338;2023-01-08T02:30:46;77.47;;;57.88;;
70592;SDS011;58294;42.988;20.338;2023-01-08T02:33:13;65.57;;;49.13;;
70592;SDS011;58294;42.988;20.338;2023-01-08T02:35:40;74.05;;;55.28;;
70592;SDS011;58294;42.988;20.338;2023-01-08T02:38:16;81.55;;;59.75;;
70592;SDS011;58294;42.988;20.338;2023-01-08T02:40:52;95.45;;;63.00;;
70592;SDS011;58294;42.988;20.338;2023-01-08T02:43:31;94.90;;;65.95;;
70592;SDS011;58294;42.988;20.338;2023-01-08T02:46:16;99.10;;;68.47;;
70592;SDS011;58294;42.988;20.338;2023-01-08T02:48:48;91.93;;;66.30;;
70592;SDS011;58294;42.988;20.338;2023-01-08T02:51:27;86.95;;;63.08;;
70592;SDS011;58294;42.988;20.338;2023-01-08T02:54:02;83.85;;;61.28;;
70592;SDS011;58294;42.988;20.338;2023-01-08T02:56:33;103.15;;;69.03;;
70592;SDS011;58294;42.988;20.338;2023-01-08T02:59:03;85.22;;;65.20;;
70592;SDS011;58294;42.988;20.338;2023-01-08T03:01:30;86.10;;;60.88;;
70592;SDS011;58294;42.988;20.338;2023-01-08T03:03:59;82.65;;;61.45;;
70592;SDS011;58294;42.988;20.338;2023-01-08T03:06:30;85.88;;;60.85;;
70592;SDS011;58294;42.988;20.338;2023-01-08T03:08:57;95.88;;;70.68;;
70592;SDS011;58294;42.988;20.338;2023-01-08T03:11:24;96.65;;;68.97;;
70592;SDS011;58294;42.988;20.338;2023-01-08T03:13:59;88.30;;;65.05;;
70592;SDS011;58294;42.988;20.338;2023-01-08T03:16:34;92.45;;;64.40;;
70592;SDS011;58294;42.988;20.338;2023-01-08T03:19:10;90.40;;;60.78;;
70592;SDS011;58294;42.988;20.338;2023-01-08T03:21:41;85.10;;;61.33;;
70592;SDS011;58294;42.988;20.338;2023-01-08T03:24:10;81.20;;;59.53;;
70592;SDS011;58294;42.988;20.338;2023-01-08T03:26:39;74.68;;;53.20;;
70592;SDS011;58294;42.988;20.338;2023-01-08T03:29:08;126.10;;;87.38;;
70592;SDS011;58294;42.988;20.338;2023-01-08T03:31:38;161.45;;;110.63;;
70592;SDS011;58294;42.988;20.338;2023-01-08T03:34:05;138.88;;;99.75;;
70592;SDS011;58294;42.988;20.338;2023-01-08T03:36:31;86.88;;;63.33;;
70592;SDS011;58294;42.988;20.338;2023-01-08T03:39:09;80.28;;;61.05;;
70592;SDS011;58294;42.988;20.338;2023-01-08T03:41:40;77.00;;;56.83;;
70592;SDS011;58294;42.988;20.338;2023-01-08T03:44:06;79.55;;;58.28;;
70592;SDS011;58294;42.988;20.338;2023-01-08T03:46:33;134.43;;;102.65;;
70592;SDS011;58294;42.988;20.338;2023-01-08T03:49:06;80.80;;;58.90;;
70592;SDS011;58294;42.988;20.338;2023-01-08T03:51:42;171.75;;;114.03;;
70592;SDS011;58294;42.988;20.338;2023-01-08T03:54:12;95.05;;;70.28;;
70592;SDS011;58294;42.988;20.338;2023-01-08T03:56:43;62.65;;;48.50;;
70592;SDS011;58294;42.988;20.338;2023-01-08T03:59:10;65.20;;;47.88;;
70592;SDS011;58294;42.988;20.338;2023-01-08T04:01:36;55.08;;;45.30;;
70592;SDS011;58294;42.988;20.338;2023-01-08T04:04:02;66.72;;;52.05;;
70592;SDS011;58294;42.988;20.338;2023-01-08T04:06:28;70.38;;;53.97;;
70592;SDS011;58294;42.988;20.338;2023-01-08T04:08:54;76.82;;;60.55;;
70592;SDS011;58294;42.988;20.338;2023-01-08T04:11:20;70.75;;;52.63;;
70592;SDS011;58294;42.988;20.338;2023-01-08T04:13:46;68.60;;;51.63;;
70592;SDS011;58294;42.988;20.338;2023-01-08T04:16:11;59.13;;;44.13;;
70592;SDS011;58294;42.988;20.338;2023-01-08T04:18:37;72.75;;;54.08;;
70592;SDS011;58294;42.988;20.338;2023-01-08T04:21:03;78.63;;;55.92;;
70592;SDS011;58294;42.988;20.338;2023-01-08T04:23:29;79.50;;;55.80;;
70592;SDS011;58294;42.988;20.338;2023-01-08T04:25:54;94.15;;;62.70;;
70592;SDS011;58294;42.988;20.338;2023-01-08T04:28:20;98.07;;;69.57;;
70592;SDS011;58294;42.988;20.338;2023-01-08T04:30:46;108.13;;;76.78;;
70592;SDS011;58294;42.988;20.338;2023-01-08T04:33:12;111.47;;;79.85;;
70592;SDS011;58294;42.988;20.338;2023-01-08T04:35:38;96.95;;;71.57;;
70592;SDS011;58294;42.988;20.338;2023-01-08T04:38:03;94.32;;;67.40;;
70592;SDS011;58294;42.988;20.338;2023-01-08T04:40:31;83.63;;;62.50;;
70592;SDS011;58294;42.988;20.338;2023-01-08T04:42:57;74.45;;;53.22;;
70592;SDS011;58294;42.988;20.338;2023-01-08T04:45:23;71.97;;;49.33;;
70592;SDS011;58294;42.988;20.338;2023-01-08T04:47:55;62.85;;;48.53;;
70592;SDS011;58294;42.988;20.338;2023-01-08T04:50:22;66.47;;;49.03;;
70592;SDS011;58294;42.988;20.338;2023-01-08T04:52:48;101.70;;;68.55;;
70592;SDS011;58294;42.988;20.338;2023-01-08T04:55:14;104.60;;;74.28;;
70592;SDS011;58294;42.988;20.338;2023-01-08T04:57:40;104.03;;;76.93;;
70592;SDS011;58294;42.988;20.338;2023-01-08T05:00:05;106.80;;;78.50;;
70592;SDS011;58294;42.988;20.338;2023-01-08T05:02:32;99.18;;;76.50;;
70592;SDS011;58294;42.988;20.338;2023-01-08T05:04:57;104.25;;;74.85;;
70592;SDS011;58294;42.988;20.338;2023-01-08T05:07:23;111.55;;;79.32;;
70592;SDS011;58294;42.988;20.338;2023-01-08T05:09:49;89.05;;;63.40;;
70592;SDS011;58294;42.988;20.338;2023-01-08T05:12:15;100.75;;;73.00;;
70592;SDS011;58294;42.988;20.338;2023-01-08T05:14:40;163.73;;;111.63;;
70592;SDS011;58294;42.988;20.338;2023-01-08T05:17:06;108.07;;;75.10;;
70592;SDS011;58294;42.988;20.338;2023-01-08T05:19:32;73.32;;;58.03;;
70592;SDS011;58294;42.988;20.338;2023-01-08T05:21:57;83.72;;;59.75;;
70592;SDS011;58294;42.988;20.338;2023-01-08T05:24:40;84.60;;;58.90;;
70592;SDS011;58294;42.988;20.338;2023-01-08T05:27:06;80.18;;;57.83;;
70592;SDS011;58294;42.988;20.338;2023-01-08T05:29:31;63.95;;;48.40;;
70592;SDS011;58294;42.988;20.338;2023-01-08T05:31:57;69.38;;;45.13;;
70592;SDS011;58294;42.988;20.338;2023-01-08T05:34:23;81.47;;;63.30;;
70592;SDS011;58294;42.988;20.338;2023-01-08T05:36:48;89.18;;;61.42;;
70592;SDS011;58294;42.988;20.338;2023-01-08T05:39:14;128.85;;;96.68;;
70592;SDS011;58294;42.988;20.338;2023-01-08T05:41:40;89.55;;;64.20;;
70592;SDS011;58294;42.988;20.338;2023-01-08T05:44:06;73.40;;;50.50;;
70592;SDS011;58294;42.988;20.338;2023-01-08T05:46:31;79.20;;;57.28;;
70592;SDS011;58294;42.988;20.338;2023-01-08T05:48:57;85.15;;;58.00;;
70592;SDS011;58294;42.988;20.338;2023-01-08T05:51:23;72.63;;;52.00;;
70592;SDS011;58294;42.988;20.338;2023-01-08T05:53:48;66.15;;;49.50;;
70592;SDS011;58294;42.988;20.338;2023-01-08T05:56:14;61.15;;;45.25;;
70592;SDS011;58294;42.988;20.338;2023-01-08T05:58:40;64.25;;;47.63;;
70592;SDS011;58294;42.988;20.338;2023-01-08T06:01:09;82.70;;;55.83;;
70592;SDS011;58294;42.988;20.338;2023-01-08T06:03:37;57.40;;;45.60;;
70592;SDS011;58294;42.988;20.338;2023-01-08T06:06:04;64.05;;;44.80;;
70592;SDS011;58294;42.988;20.338;2023-01-08T06:08:33;62.67;;;48.92;;
70592;SDS011;58294;42.988;20.338;2023-01-08T06:10:59;70.35;;;57.17;;
70592;SDS011;58294;42.988;20.338;2023-01-08T06:13:27;81.63;;;63.28;;
70592;SDS011;58294;42.988;20.338;2023-01-08T06:15:53;56.38;;;43.60;;
70592;SDS011;58294;42.988;20.338;2023-01-08T06:18:18;56.47;;;42.25;;
70592;SDS011;58294;42.988;20.338;2023-01-08T06:20:44;61.05;;;42.53;;
70592;SDS011;58294;42.988;20.338;2023-01-08T06:23:10;73.07;;;57.00;;
70592;SDS011;58294;42.988;20.338;2023-01-08T06:25:36;63.65;;;49.22;;
70592;SDS011;58294;42.988;20.338;2023-01-08T06:28:02;61.28;;;46.40;;
70592;SDS011;58294;42.988;20.338;2023-01-08T06:30:28;64.20;;;46.22;;
70592;SDS011;58294;42.988;20.338;2023-01-08T06:32:55;63.90;;;44.25;;
70592;SDS011;58294;42.988;20.338;2023-01-08T06:35:22;50.67;;;40.15;;
70592;SDS011;58294;42.988;20.338;2023-01-08T06:37:48;51.83;;;38.40;;
70592;SDS011;58294;42.988;20.338;2023-01-08T06:40:14;47.05;;;37.03;;
70592;SDS011;58294;42.988;20.338;2023-01-08T06:42:39;55.17;;;37.65;;
70592;SDS011;58294;42.988;20.338;2023-01-08T06:45:07;54.30;;;39.33;;
70592;SDS011;58294;42.988;20.338;2023-01-08T06:47:33;55.20;;;42.05;;
70592;SDS011;58294;42.988;20.338;2023-01-08T06:49:59;80.03;;;52.60;;
70592;SDS011;58294;42.988;20.338;2023-01-08T06:52:25;82.97;;;59.85;;
70592;SDS011;58294;42.988;20.338;2023-01-08T06:54:50;87.28;;;65.63;;
70592;SDS011;58294;42.988;20.338;2023-01-08T06:57:16;105.53;;;75.70;;
70592;SDS011;58294;42.988;20.338;2023-01-08T06:59:42;122.35;;;92.25;;
70592;SDS011;58294;42.988;20.338;2023-01-08T07:02:12;124.28;;;97.47;;
70592;SDS011;58294;42.988;20.338;2023-01-08T07:04:38;161.57;;;119.65;;
70592;SDS011;58294;42.988;20.338;2023-01-08T07:07:04;154.10;;;106.95;;
70592;SDS011;58294;42.988;20.338;2023-01-08T07:09:32;172.85;;;121.55;;
70592;SDS011;58294;42.988;20.338;2023-01-08T07:11:58;174.40;;;129.60;;
70592;SDS011;58294;42.988;20.338;2023-01-08T07:14:24;119.88;;;92.45;;
70592;SDS011;58294;42.988;20.338;2023-01-08T07:16:50;139.38;;;108.90;;
70592;SDS011;58294;42.988;20.338;2023-01-08T07:19:15;150.95;;;113.60;;
70592;SDS011;58294;42.988;20.338;2023-01-08T07:21:41;152.88;;;116.85;;
70592;SDS011;58294;42.988;20.338;2023-01-08T07:24:07;148.48;;;113.57;;
70592;SDS011;58294;42.988;20.338;2023-01-08T07:26:33;108.40;;;77.88;;
70592;SDS011;58294;42.988;20.338;2023-01-08T07:28:59;99.65;;;71.55;;
70592;SDS011;58294;42.988;20.338;2023-01-08T07:31:25;96.18;;;67.82;;
70592;SDS011;58294;42.988;20.338;2023-01-08T07:33:51;113.50;;;84.10;;
70592;SDS011;58294;42.988;20.338;2023-01-08T07:36:16;116.75;;;89.40;;
70592;SDS011;58294;42.988;20.338;2023-01-08T07:38:46;106.78;;;78.18;;
70592;SDS011;58294;42.988;20.338;2023-01-08T07:41:13;120.60;;;88.57;;
70592;SDS011;58294;42.988;20.338;2023-01-08T07:43:39;141.05;;;103.70;;
70592;SDS011;58294;42.988;20.338;2023-01-08T07:46:05;129.73;;;103.85;;
70592;SDS011;58294;42.988;20.338;2023-01-08T07:48:31;116.78;;;91.38;;
70592;SDS011;58294;42.988;20.338;2023-01-08T07:51:00;178.55;;;133.45;;
70592;SDS011;58294;42.988;20.338;2023-01-08T07:53:27;204.15;;;153.85;;
70592;SDS011;58294;42.988;20.338;2023-01-08T07:56:03;218.75;;;156.63;;
70592;SDS011;58294;42.988;20.338;2023-01-08T07:58:31;146.55;;;108.05;;
70592;SDS011;58294;42.988;20.338;2023-01-08T08:00:57;156.30;;;113.07;;
70592;SDS011;58294;42.988;20.338;2023-01-08T08:03:23;160.07;;;122.43;;
70592;SDS011;58294;42.988;20.338;2023-01-08T08:05:49;167.60;;;123.68;;
70592;SDS011;58294;42.988;20.338;2023-01-08T08:08:15;141.52;;;111.25;;
70592;SDS011;58294;42.988;20.338;2023-01-08T08:10:41;136.88;;;101.28;;
70592;SDS011;58294;42.988;20.338;2023-01-08T08:13:07;114.10;;;83.68;;
70592;SDS011;58294;42.988;20.338;2023-01-08T08:15:34;114.03;;;84.50;;
70592;SDS011;58294;42.988;20.338;2023-01-08T08:18:01;120.25;;;93.47;;
70592;SDS011;58294;42.988;20.338;2023-01-08T08:20:27;133.70;;;105.50;;
70592;SDS011;58294;42.988;20.338;2023-01-08T08:23:00;133.60;;;106.72;;
70592;SDS011;58294;42.988;20.338;2023-01-08T08:25:26;134.85;;;109.53;;
70592;SDS011;58294;42.988;20.338;2023-01-08T08:27:54;142.57;;;115.15;;
70592;SDS011;58294;42.988;20.338;2023-01-08T08:30:21;145.70;;;114.18;;
70592;SDS011;58294;42.988;20.338;2023-01-08T08:32:47;123.00;;;98.90;;
70592;SDS011;58294;42.988;20.338;2023-01-08T08:35:12;130.98;;;101.97;;
70592;SDS011;58294;42.988;20.338;2023-01-08T08:37:38;114.93;;;87.32;;
70592;SDS011;58294;42.988;20.338;2023-01-08T08:40:04;104.30;;;86.85;;
70592;SDS011;58294;42.988;20.338;2023-01-08T08:42:30;99.13;;;78.00;;
70592;SDS011;58294;42.988;20.338;2023-01-08T08:44:56;104.28;;;83.70;;
70592;SDS011;58294;42.988;20.338;2023-01-08T08:47:22;102.18;;;81.22;;
70592;SDS011;58294;42.988;20.338;2023-01-08T08:49:47;76.30;;;59.60;;
70592;SDS011;58294;42.988;20.338;2023-01-08T08:52:13;105.82;;;84.07;;
70592;SDS011;58294;42.988;20.338;2023-01-08T08:54:39;87.22;;;68.82;;
70592;SDS011;58294;42.988;20.338;2023-01-08T08:57:06;83.55;;;65.93;;
70592;SDS011;58294;42.988;20.338;2023-01-08T08:59:33;88.25;;;71.35;;
70592;SDS011;58294;42.988;20.338;2023-01-08T09:01:59;77.70;;;66.30;;
70592;SDS011;58294;42.988;20.338;2023-01-08T09:04:25;73.53;;;55.63;;
70592;SDS011;58294;42.988;20.338;2023-01-08T09:06:53;64.43;;;50.97;;
70592;SDS011;58294;42.988;20.338;2023-01-08T09:09:19;60.22;;;52.63;;
70592;SDS011;58294;42.988;20.338;2023-01-08T09:11:45;71.90;;;56.38;;
70592;SDS011;58294;42.988;20.338;2023-01-08T09:14:10;74.45;;;60.13;;
70592;SDS011;58294;42.988;20.338;2023-01-08T09:16:36;71.95;;;57.92;;
70592;SDS011;58294;42.988;20.338;2023-01-08T09:19:02;87.55;;;67.45;;
70592;SDS011;58294;42.988;20.338;2023-01-08T09:21:30;88.53;;;65.95;;
70592;SDS011;58294;42.988;20.338;2023-01-08T09:23:56;61.50;;;51.55;;
70592;SDS011;58294;42.988;20.338;2023-01-08T09:26:22;56.92;;;49.03;;
70592;SDS011;58294;42.988;20.338;2023-01-08T09:28:48;62.55;;;51.35;;
70592;SDS011;58294;42.988;20.338;2023-01-08T09:31:13;63.53;;;53.53;;
70592;SDS011;58294;42.988;20.338;2023-01-08T09:33:39;62.10;;;47.55;;
70592;SDS011;58294;42.988;20.338;2023-01-08T09:36:08;59.97;;;46.65;;
70592;SDS011;58294;42.988;20.338;2023-01-08T09:38:35;56.80;;;45.78;;
70592;SDS011;58294;42.988;20.338;2023-01-08T09:41:44;54.05;;;46.38;;
70592;SDS011;58294;42.988;20.338;2023-01-08T09:43:52;75.20;;;58.90;;
70592;SDS011;58294;42.988;20.338;2023-01-08T09:46:20;98.40;;;80.55;;
70592;SDS011;58294;42.988;20.338;2023-01-08T09:48:48;73.70;;;58.08;;
70592;SDS011;58294;42.988;20.338;2023-01-08T09:51:17;79.05;;;64.10;;
70592;SDS011;58294;42.988;20.338;2023-01-08T09:53:44;74.15;;;61.17;;
70592;SDS011;58294;42.988;20.338;2023-01-08T09:56:14;74.47;;;65.18;;
70592;SDS011;58294;42.988;20.338;2023-01-08T09:58:49;66.13;;;55.58;;
70592;SDS011;58294;42.988;20.338;2023-01-08T10:01:18;86.70;;;73.18;;
70592;SDS011;58294;42.988;20.338;2023-01-08T10:06:21;65.22;;;57.80;;
70592;SDS011;58294;42.988;20.338;2023-01-08T10:08:48;74.43;;;59.70;;
70592;SDS011;58294;42.988;20.338;2023-01-08T10:11:15;58.00;;;51.70;;
70592;SDS011;58294;42.988;20.338;2023-01-08T10:13:43;60.70;;;48.30;;
70592;SDS011;58294;42.988;20.338;2023-01-08T10:16:52;55.47;;;44.60;;
70592;SDS011;58294;42.988;20.338;2023-01-08T10:19:10;50.33;;;40.25;;
70592;SDS011;58294;42.988;20.338;2023-01-08T10:21:36;47.58;;;41.45;;
70592;SDS011;58294;42.988;20.338;2023-01-08T10:24:04;51.33;;;44.67;;
70592;SDS011;58294;42.988;20.338;2023-01-08T10:26:32;57.08;;;44.85;;
70592;SDS011;58294;42.988;20.338;2023-01-08T10:29:10;56.17;;;47.75;;
70592;SDS011;58294;42.988;20.338;2023-01-08T10:31:51;54.35;;;48.58;;
70592;SDS011;58294;42.988;20.338;2023-01-08T10:34:21;61.25;;;52.33;;
70592;SDS011;58294;42.988;20.338;2023-01-08T10:36:57;67.88;;;54.20;;
70592;SDS011;58294;42.988;20.338;2023-01-08T10:39:26;70.60;;;54.25;;
70592;SDS011;58294;42.988;20.338;2023-01-08T10:41:56;110.05;;;98.03;;
70592;SDS011;58294;42.988;20.338;2023-01-08T10:44:28;60.10;;;52.63;;
70592;SDS011;58294;42.988;20.338;2023-01-08T10:46:57;68.07;;;56.53;;
70592;SDS011;58294;42.988;20.338;2023-01-08T10:52:03;61.50;;;55.17;;
70592;SDS011;58294;42.988;20.338;2023-01-08T10:54:39;58.65;;;51.95;;
70592;SDS011;58294;42.988;20.338;2023-01-08T10:59:51;78.60;;;68.85;;
70592;SDS011;58294;42.988;20.338;2023-01-08T11:02:38;65.70;;;56.20;;
70592;SDS011;58294;42.988;20.338;2023-01-08T11:05:04;67.97;;;56.22;;
70592;SDS011;58294;42.988;20.338;2023-01-08T11:07:32;65.57;;;58.42;;
70592;SDS011;58294;42.988;20.338;2023-01-08T11:09:59;64.60;;;57.25;;
70592;SDS011;58294;42.988;20.338;2023-01-08T11:12:33;83.60;;;65.18;;
70592;SDS011;58294;42.988;20.338;2023-01-08T11:15:00;78.82;;;69.93;;
70592;SDS011;58294;42.988;20.338;2023-01-08T11:17:28;83.07;;;69.30;;
70592;SDS011;58294;42.988;20.338;2023-01-08T11:19:54;76.85;;;63.88;;
70592;SDS011;58294;42.988;20.338;2023-01-08T11:22:31;76.22;;;60.78;;
70592;SDS011;58294;42.988;20.338;2023-01-08T11:24:57;53.05;;;46.20;;
70592;SDS011;58294;42.988;20.338;2023-01-08T11:27:30;58.15;;;50.70;;
70592;SDS011;58294;42.988;20.338;2023-01-08T11:35:12;83.25;;;74.15;;
70592;SDS011;58294;42.988;20.338;2023-01-08T11:37:53;74.50;;;63.78;;
70592;SDS011;58294;42.988;20.338;2023-01-08T11:43:25;79.25;;;70.57;;
70592;SDS011;58294;42.988;20.338;2023-01-08T11:48:34;60.95;;;53.63;;
70592;SDS011;58294;42.988;20.338;2023-01-08T11:58:26;76.30;;;68.30;;
70592;SDS011;58294;42.988;20.338;2023-01-08T12:06:12;69.43;;;62.17;;
70592;SDS011;58294;42.988;20.338;2023-01-08T12:11:27;77.40;;;64.60;;
70592;SDS011;58294;42.988;20.338;2023-01-08T12:14:22;69.00;;;61.55;;
70592;SDS011;58294;42.988;20.338;2023-01-08T12:17:24;57.22;;;48.83;;
70592;SDS011;58294;42.988;20.338;2023-01-08T12:20:11;65.20;;;50.45;;
70592;SDS011;58294;42.988;20.338;2023-01-08T12:22:51;57.08;;;50.80;;
70592;SDS011;58294;42.988;20.338;2023-01-08T12:34:11;178.23;;;147.75;;
70592;SDS011;58294;42.988;20.338;2023-01-08T12:36:44;81.30;;;68.13;;
70592;SDS011;58294;42.988;20.338;2023-01-08T12:39:15;48.40;;;42.28;;
70592;SDS011;58294;42.988;20.338;2023-01-08T12:41:51;42.20;;;37.58;;
70592;SDS011;58294;42.988;20.338;2023-01-08T12:44:24;49.90;;;36.28;;
70592;SDS011;58294;42.988;20.338;2023-01-08T12:46:52;50.27;;;38.50;;
70592;SDS011;58294;42.988;20.338;2023-01-08T12:49:28;50.40;;;43.03;;
70592;SDS011;58294;42.988;20.338;2023-01-08T12:52:18;50.10;;;37.85;;
70592;SDS011;58294;42.988;20.338;2023-01-08T12:57:25;57.45;;;41.55;;
70592;SDS011;58294;42.988;20.338;2023-01-08T13:07:44;45.20;;;33.00;;
70592;SDS011;58294;42.988;20.338;2023-01-08T13:15:49;46.08;;;34.40;;
70592;SDS011;58294;42.988;20.338;2023-01-08T13:18:16;44.83;;;34.10;;
70592;SDS011;58294;42.988;20.338;2023-01-08T13:20:56;48.67;;;36.88;;
70592;SDS011;58294;42.988;20.338;2023-01-08T13:23:28;48.47;;;32.83;;
70592;SDS011;58294;42.988;20.338;2023-01-08T13:25:58;41.90;;;31.35;;
70592;SDS011;58294;42.988;20.338;2023-01-08T13:28:29;61.20;;;34.25;;
70592;SDS011;58294;42.988;20.338;2023-01-08T13:31:28;82.57;;;53.72;;
70592;SDS011;58294;42.988;20.338;2023-01-08T13:33:53;83.75;;;54.58;;
70592;SDS011;58294;42.988;20.338;2023-01-08T13:36:21;56.88;;;39.47;;
70592;SDS011;58294;42.988;20.338;2023-01-08T13:38:58;74.63;;;50.10;;
70592;SDS011;58294;42.988;20.338;2023-01-08T13:41:34;73.40;;;45.50;;
70592;SDS011;58294;42.988;20.338;2023-01-08T13:44:22;82.57;;;56.20;;
70592;SDS011;58294;42.988;20.338;2023-01-08T13:46:55;82.93;;;56.53;;
70592;SDS011;58294;42.988;20.338;2023-01-08T13:49:27;92.57;;;66.15;;
70592;SDS011;58294;42.988;20.338;2023-01-08T13:51:58;124.75;;;85.97;;
70592;SDS011;58294;42.988;20.338;2023-01-08T13:54:28;109.00;;;78.25;;
70592;SDS011;58294;42.988;20.338;2023-01-08T13:57:04;107.22;;;78.03;;
70592;SDS011;58294;42.988;20.338;2023-01-08T13:59:47;89.80;;;68.00;;
70592;SDS011;58294;42.988;20.338;2023-01-08T14:04:51;82.57;;;63.90;;
70592;SDS011;58294;42.988;20.338;2023-01-08T14:07:17;85.70;;;59.75;;
70592;SDS011;58294;42.988;20.338;2023-01-08T14:09:43;79.25;;;47.97;;
70592;SDS011;58294;42.988;20.338;2023-01-08T14:12:13;77.32;;;52.58;;
70592;SDS011;58294;42.988;20.338;2023-01-08T14:17:13;104.75;;;80.18;;
70592;SDS011;58294;42.988;20.338;2023-01-08T14:19:41;121.25;;;88.60;;
70592;SDS011;58294;42.988;20.338;2023-01-08T14:22:10;102.75;;;78.25;;
70592;SDS011;58294;42.988;20.338;2023-01-08T14:24:42;88.15;;;68.70;;
70592;SDS011;58294;42.988;20.338;2023-01-08T14:27:18;169.93;;;123.93;;
70592;SDS011;58294;42.988;20.338;2023-01-08T14:29:48;155.40;;;119.38;;
70592;SDS011;58294;42.988;20.338;2023-01-08T14:32:21;139.10;;;100.80;;
70592;SDS011;58294;42.988;20.338;2023-01-08T14:34:53;115.50;;;81.00;;
70592;SDS011;58294;42.988;20.338;2023-01-08T14:37:20;91.93;;;66.40;;
70592;SDS011;58294;42.988;20.338;2023-01-08T14:39:46;158.93;;;107.88;;
70592;SDS011;58294;42.988;20.338;2023-01-08T14:42:20;116.25;;;84.82;;
70592;SDS011;58294;42.988;20.338;2023-01-08T14:48:00;84.32;;;60.83;;
70592;SDS011;58294;42.988;20.338;2023-01-08T14:50:33;90.70;;;62.85;;
70592;SDS011;58294;42.988;20.338;2023-01-08T14:53:06;87.57;;;60.30;;
70592;SDS011;58294;42.988;20.338;2023-01-08T14:58:25;108.25;;;66.95;;
70592;SDS011;58294;42.988;20.338;2023-01-08T15:01:02;131.18;;;93.55;;
70592;SDS011;58294;42.988;20.338;2023-01-08T15:03:34;100.28;;;71.03;;
70592;SDS011;58294;42.988;20.338;2023-01-08T15:06:00;89.85;;;62.40;;
70592;SDS011;58294;42.988;20.338;2023-01-08T15:08:31;94.10;;;60.17;;
70592;SDS011;58294;42.988;20.338;2023-01-08T15:11:06;80.00;;;52.67;;
70592;SDS011;58294;42.988;20.338;2023-01-08T15:13:45;75.82;;;53.83;;
70592;SDS011;58294;42.988;20.338;2023-01-08T15:18:45;117.70;;;92.15;;
70592;SDS011;58294;42.988;20.338;2023-01-08T15:21:19;129.45;;;95.75;;
70592;SDS011;58294;42.988;20.338;2023-01-08T15:23:50;107.15;;;75.38;;
70592;SDS011;58294;42.988;20.338;2023-01-08T15:26:19;102.22;;;77.45;;
70592;SDS011;58294;42.988;20.338;2023-01-08T15:28:50;114.05;;;82.78;;
70592;SDS011;58294;42.988;20.338;2023-01-08T15:31:23;78.68;;;54.35;;
70592;SDS011;58294;42.988;20.338;2023-01-08T15:33:48;66.53;;;46.42;;
70592;SDS011;58294;42.988;20.338;2023-01-08T15:36:14;44.30;;;39.40;;
70592;SDS011;58294;42.988;20.338;2023-01-08T15:38:40;88.20;;;66.50;;